EST,Max TemperatureF,Mean TemperatureF,Min TemperatureF,Max Dew PointF,MeanDew PointF,Min DewpointF,Max Humidity, Mean Humidity, Min Humidity, Max Sea Level PressureIn, Mean Sea Level PressureIn, Min Sea Level PressureIn, Max VisibilityMiles, Mean VisibilityMiles, Min VisibilityMiles, Max Wind SpeedMPH, Mean Wind SpeedMPH, Max Gust SpeedMPH,PrecipitationIn, CloudCover, Events, WindDirDegrees
2012-12-1,63,51,39,45,41,36,89,74,52,30.30,30.23,30.18,10,10,7,10,2,,0.00,5,,189
2012-12-2,59,56,54,57,53,45,100,88,60,30.17,30.13,30.09,10,5,0,15,7,24,0.37,8,Fog-Rain,207
2012-12-3,71,61,51,59,54,51,100,90,63,30.18,30.14,30.08,10,4,0,15,1,21,0.01,6,Fog-Rain,201
2012-12-4,66,52,37,59,50,38,100,84,67,30.24,30.12,30.02,10,7,0,17,9,25,0.39,8,Fog-Rain,264
2012-12-5,48,39,28,39,34,26,100,83,50,30.39,30.34,30.24,10,6,0,8,2,,0.00,0,Fog,28
2012-12-6,48,37,26,44,32,24,97,84,61,30.32,30.17,30.00,10,8,2,7,0,,0.00,2,Rain,64
2012-12-7,54,48,44,54,48,45,100,98,93,30.00,29.95,29.86,8,3,1,7,0,,0.32,8,Rain,213
2012-12-8,55,52,48,54,51,46,100,96,80,30.05,29.91,29.85,10,5,0,10,4,,0.04,8,Fog-Rain,237
2012-12-9,60,53,46,59,52,45,100,95,90,30.05,29.88,29.74,10,8,2,12,6,33,0.59,8,Rain-Thunderstorm,154
2012-12-10,55,44,34,55,41,26,100,88,73,29.98,29.78,29.70,10,10,6,13,8,22,0.10,8,Rain,291
2012-12-11,35,30,23,30,26,22,100,79,64,30.30,30.15,29.99,10,10,7,10,7,16,0.00,6,,244
2012-12-12,44,32,21,29,24,21,100,88,45,30.45,30.40,30.31,10,6,0,5,0,,0.00,1,Fog,354
2012-12-13,46,34,21,31,25,21,100,91,46,30.46,30.41,30.31,10,4,0,6,0,,0.00,1,Fog,205
2012-12-14,55,39,23,34,27,23,100,86,31,30.35,30.30,30.20,10,5,0,8,0,,0.00,1,Fog,215
2012-12-15,53,42,33,44,39,31,97,81,66,30.19,30.00,29.82,10,10,7,9,2,22,0.00,5,Rain,192
2012-12-16,62,52,42,54,50,43,100,83,69,29.81,29.74,29.68,10,10,2,13,8,,0.00,6,Rain,202
2012-12-17,50,46,42,48,45,43,100,97,89,29.75,29.66,29.55,10,5,1,14,2,29,0.52,7,Rain-Thunderstorm,331
2012-12-18,45,38,32,43,37,32,100,89,79,29.91,29.79,29.65,10,9,4,14,7,20,0.00,6,Rain,270
2012-12-19,48,42,37,38,35,33,87,77,64,30.09,30.02,29.82,10,9,7,12,5,21,0.00,3,,270
2012-12-20,51,42,33,49,40,26,96,82,66,29.95,29.56,29.31,10,8,2,36,12,48,0.62,6,Rain-Snow,193
2012-12-21,33,30,28,26,23,21,85,76,72,30.12,29.86,29.58,10,9,4,28,22,38,0.00,8,Snow,264
2012-12-22,35,30,24,22,21,20,91,74,57,30.32,30.20,30.11,10,10,10,16,11,24,0.00,4,,248
2012-12-23,50,36,21,32,26,20,96,80,44,30.11,30.00,29.95,10,10,8,8,1,,0.00,0,,265
2012-12-24,44,35,26,43,33,26,100,93,79,30.05,29.90,29.80,10,6,2,14,3,,0.02,6,Rain,311
2012-12-25,36,34,32,31,28,26,89,80,73,30.21,30.13,30.04,10,9,5,15,6,24,0.00,8,,35
2012-12-26,35,32,30,34,30,24,100,91,70,30.02,29.71,29.55,10,5,0,21,14,29,0.32,8,Fog-Rain-Snow,10
2012-12-27,32,29,26,26,24,22,93,82,75,30.21,30.15,29.97,10,10,7,9,5,,0.00,6,,299
2012-12-28,35,30,24,32,28,25,100,89,75,30.21,30.05,29.86,10,7,1,7,2,,0.01,7,Snow,44
2012-12-29,33,30,26,32,29,19,100,91,72,30.26,29.89,29.74,10,4,1,17,5,28,0.01,8,Snow,311
2012-12-30,28,26,21,21,19,17,92,77,69,30.51,30.42,30.27,10,10,7,17,10,21,0.00,4,,236
2012-12-31,36,28,21,31,26,19,92,83,67,30.37,30.21,30.11,10,9,3,12,4,,0.00,5,Snow,208